Time;durP1;ratioP1;P1;durP2;ratioP2;P2;SDS_P1;SDS_P2;PMS_P1;PMS_P2;Temp;Humidity;BMP_temperature;BMP_pressure;BME280_temperature;BME280_humidity;BME280_pressure;Samples;Min_cycle;Max_cycle;Signal;HPM_P1;HPM_P2
2023/01/18 00:01:04;;;;;;;6.30;3.47;;;;;;;;;;5055891;28;19912;-76
2023/01/18 00:03:33;;;;;;;9.35;3.55;;;;;;;;;;5074274;28;20037;-76
2023/01/18 00:06:03;;;;;;;7.68;4.38;;;;;;;;;;5057314;28;20036;-77
2023/01/18 00:08:30;;;;;;;6.65;3.40;;;;;;;;;;5082839;28;20467;-76
2023/01/18 00:11:17;;;;;;;7.13;2.95;;;;;;;;;;5053875;28;20111;-77
2023/01/18 00:13:44;;;;;;;7.25;2.67;;;;;;;;;;5069856;28;20024;-76
2023/01/18 00:16:11;;;;;;;5.85;2.95;;;;;;;;;;5064819;28;20492;-77
2023/01/18 00:18:37;;;;;;;5.57;2.88;;;;;;;;;;5068867;28;20056;-76
2023/01/18 00:21:04;;;;;;;5.65;2.70;;;;;;;;;;5061608;28;20472;-76
2023/01/18 00:23:30;;;;;;;5.93;2.85;;;;;;;;;;5076344;28;20082;-76
2023/01/18 00:26:06;;;;;;;6.65;3.72;;;;;;;;;;5065331;28;20424;-76
2023/01/18 00:28:32;;;;;;;3.75;2.63;;;;;;;;;;5068000;28;20077;-75
2023/01/18 00:30:59;;;;;;;6.97;3.15;;;;;;;;;;5070559;28;20269;-78
2023/01/18 00:33:25;;;;;;;6.28;2.90;;;;;;;;;;5062871;28;20507;-77
2023/01/18 00:35:55;;;;;;;8.02;2.70;;;;;;;;;;5062478;28;20025;-76
2023/01/18 00:38:21;;;;;;;5.32;2.63;;;;;;;;;;5062007;28;20485;-76
2023/01/18 00:40:47;;;;;;;8.35;3.08;;;;;;;;;;5064577;28;20366;-76
2023/01/18 00:45:58;;;;;;;11.30;2.55;;;;;;;;;;5060940;28;20064;-77
2023/01/18 00:48:24;;;;;;;5.47;2.72;;;;;;;;;;5062509;28;20029;-75
2023/01/18 00:50:50;;;;;;;4.03;2.70;;;;;;;;;;5064544;28;20036;-76
2023/01/18 00:53:16;;;;;;;6.47;2.92;;;;;;;;;;5066729;28;20028;-77
2023/01/18 00:55:42;;;;;;;6.38;2.92;;;;;;;;;;5042565;28;20041;-75
2023/01/18 00:58:08;;;;;;;6.60;2.83;;;;;;;;;;5067529;28;20064;-78
2023/01/18 01:00:34;;;;;;;10.15;3.42;;;;;;;;;;5066807;28;20021;-74
2023/01/18 01:03:00;;;;;;;4.80;2.47;;;;;;;;;;5066982;28;20035;-77
2023/01/18 01:08:16;;;;;;;6.47;2.50;;;;;;;;;;5069527;28;20039;-78
2023/01/18 01:10:44;;;;;;;5.18;2.55;;;;;;;;;;5048182;28;20086;-75
2023/01/18 01:26:53;;;;;;;5.10;2.20;;;;;;;;;;5065917;28;20102;-76
2023/01/18 01:29:19;;;;;;;4.43;2.20;;;;;;;;;;5052281;28;20468;-76
2023/01/18 01:31:45;;;;;;;6.30;2.40;;;;;;;;;;5065533;28;20037;-75
2023/01/18 01:34:11;;;;;;;5.47;2.20;;;;;;;;;;5069695;28;20032;-78
2023/01/18 01:36:37;;;;;;;7.60;2.20;;;;;;;;;;5070527;28;20098;-75
2023/01/18 01:39:03;;;;;;;4.55;2.15;;;;;;;;;;5069455;28;20028;-76
2023/01/18 01:41:31;;;;;;;3.78;2.05;;;;;;;;;;5063529;28;20044;-76
2023/01/18 01:44:05;;;;;;;4.45;2.30;;;;;;;;;;5067890;28;20024;-75
2023/01/18 01:46:33;;;;;;;7.50;1.90;;;;;;;;;;5071234;28;20463;-75
2023/01/18 01:49:10;;;;;;;4.50;2.15;;;;;;;;;;5047327;28;20713;-76
2023/01/18 01:51:39;;;;;;;4.28;1.80;;;;;;;;;;5065844;28;20028;-76
2023/01/18 01:54:07;;;;;;;6.32;2.58;;;;;;;;;;5090827;28;20016;-76
2023/01/18 01:56:33;;;;;;;3.78;1.45;;;;;;;;;;5063374;28;20039;-76
2023/01/18 01:59:00;;;;;;;3.42;1.88;;;;;;;;;;5068277;28;20032;-78
2023/01/18 02:01:28;;;;;;;6.95;2.15;;;;;;;;;;5063729;28;20337;-78
2023/01/18 02:03:55;;;;;;;6.45;1.80;;;;;;;;;;5064162;28;20133;-77
2023/01/18 02:06:31;;;;;;;14.73;2.75;;;;;;;;;;5058448;28;20029;-78
2023/01/18 02:09:05;;;;;;;4.45;1.83;;;;;;;;;;5069116;28;20031;-78
2023/01/18 02:11:31;;;;;;;4.15;1.92;;;;;;;;;;5061008;28;20104;-78
2023/01/18 02:14:00;;;;;;;3.72;1.70;;;;;;;;;;5065160;28;20033;-78
2023/01/18 02:16:26;;;;;;;3.80;1.60;;;;;;;;;;5067066;28;20025;-76
2023/01/18 02:18:58;;;;;;;8.57;2.15;;;;;;;;;;5065044;28;20119;-77
2023/01/18 02:21:25;;;;;;;6.90;2.03;;;;;;;;;;5059168;28;20481;-76
2023/01/18 02:24:09;;;;;;;3.35;1.60;;;;;;;;;;5065747;28;20082;-79
2023/01/18 02:26:51;;;;;;;8.80;1.92;;;;;;;;;;5041144;28;20040;-76
2023/01/18 02:29:20;;;;;;;6.18;1.98;;;;;;;;;;5066962;28;20081;-76
2023/01/18 02:31:58;;;;;;;8.15;2.40;;;;;;;;;;5069841;28;20024;-77
2023/01/18 02:34:29;;;;;;;5.10;2.60;;;;;;;;;;5064202;28;20028;-76
2023/01/18 02:37:14;;;;;;;2.95;1.75;;;;;;;;;;5057059;28;20041;-76
2023/01/18 02:39:49;;;;;;;6.93;2.55;;;;;;;;;;5086886;28;20101;-75
2023/01/18 02:47:55;;;;;;;6.35;2.42;;;;;;;;;;5071651;28;20405;-77
2023/01/18 02:50:26;;;;;;;6.50;2.42;;;;;;;;;;5069385;28;20087;-76
2023/01/18 02:52:52;;;;;;;5.57;2.40;;;;;;;;;;5066701;28;20046;-76
2023/01/18 02:55:21;;;;;;;22.02;2.60;;;;;;;;;;5080090;28;20102;-76
2023/01/18 02:57:48;;;;;;;7.90;2.55;;;;;;;;;;5073668;28;20085;-77
2023/01/18 03:00:16;;;;;;;9.23;3.13;;;;;;;;;;5067971;28;20481;-77
2023/01/18 03:02:43;;;;;;;7.50;3.22;;;;;;;;;;5066033;28;20032;-77
2023/01/18 03:05:10;;;;;;;8.85;3.95;;;;;;;;;;5070494;28;20051;-77
2023/01/18 03:07:42;;;;;;;5.60;3.40;;;;;;;;;;5051847;28;20396;-78
2023/01/18 03:10:10;;;;;;;8.25;2.80;;;;;;;;;;5042118;28;20063;-77
2023/01/18 03:12:45;;;;;;;8.10;3.00;;;;;;;;;;5058052;28;20052;-76
2023/01/18 03:15:17;;;;;;;5.50;2.75;;;;;;;;;;5064112;28;20027;-77
2023/01/18 03:17:49;;;;;;;9.43;2.00;;;;;;;;;;5071722;28;20113;-76
2023/01/18 03:20:16;;;;;;;3.50;1.55;;;;;;;;;;5071692;28;20301;-76
2023/01/18 03:25:42;;;;;;;5.40;1.63;;;;;;;;;;5077277;28;20044;-76
2023/01/18 03:33:49;;;;;;;7.22;1.92;;;;;;;;;;5071824;28;20385;-77
2023/01/18 03:36:15;;;;;;;;;;;;;;;;;;5063809;28;20052;-76
2023/01/18 03:38:42;;;;;;;11.98;1.98;;;;;;;;;;5069883;28;19954;-78
2023/01/18 03:41:09;;;;;;;7.05;1.50;;;;;;;;;;5065617;28;20093;-76
2023/01/18 03:43:36;;;;;;;11.02;1.90;;;;;;;;;;5052550;28;20036;-75
2023/01/18 03:46:03;;;;;;;4.25;1.80;;;;;;;;;;5066149;28;20049;-77
2023/01/18 03:48:30;;;;;;;5.55;3.10;;;;;;;;;;5086271;28;20028;-76
2023/01/18 03:51:04;;;;;;;19.40;4.68;;;;;;;;;;5064528;28;20037;-76
2023/01/18 03:53:31;;;;;;;4.40;2.30;;;;;;;;;;5067066;28;20024;-76
2023/01/18 03:56:01;;;;;;;4.85;2.17;;;;;;;;;;5057969;28;20229;-77
2023/01/18 03:58:35;;;;;;;5.88;2.33;;;;;;;;;;5065111;28;20029;-76
2023/01/18 04:01:05;;;;;;;6.63;2.00;;;;;;;;;;5057659;28;20132;-77
2023/01/18 04:03:32;;;;;;;7.75;2.72;;;;;;;;;;5042980;28;20025;-75
2023/01/18 04:06:00;;;;;;;8.55;2.28;;;;;;;;;;5052791;28;20047;-76
2023/01/18 04:08:27;;;;;;;2.85;1.70;;;;;;;;;;5068469;28;20545;-75
2023/01/18 04:10:53;;;;;;;7.00;1.98;;;;;;;;;;5069423;28;20029;-76
2023/01/18 04:13:19;;;;;;;4.68;2.42;;;;;;;;;;5064618;28;20443;-76
2023/01/18 04:15:45;;;;;;;4.93;2.25;;;;;;;;;;5070094;28;20035;-75
2023/01/18 04:18:11;;;;;;;3.45;2.05;;;;;;;;;;5062704;28;20035;-75
2023/01/18 04:20:37;;;;;;;4.97;2.40;;;;;;;;;;5068905;28;20032;-75
2023/01/18 04:23:03;;;;;;;9.85;2.88;;;;;;;;;;5078116;28;20043;-75
2023/01/18 04:25:29;;;;;;;6.95;3.30;;;;;;;;;;5092306;28;20165;-75
2023/01/18 04:27:55;;;;;;;5.57;2.58;;;;;;;;;;5066886;28;20036;-76
2023/01/18 04:30:21;;;;;;;6.05;2.10;;;;;;;;;;5070096;28;20037;-76
2023/01/18 04:32:48;;;;;;;8.70;2.78;;;;;;;;;;5070557;28;20028;-76
2023/01/18 04:35:14;;;;;;;13.63;2.92;;;;;;;;;;5051293;28;20496;-75
2023/01/18 04:37:40;;;;;;;10.20;2.55;;;;;;;;;;5045154;28;20020;-75
2023/01/18 04:40:07;;;;;;;4.38;2.70;;;;;;;;;;5071718;28;20415;-75
2023/01/18 04:42:33;;;;;;;6.00;3.03;;;;;;;;;;5064445;28;20036;-75
2023/01/18 04:44:59;;;;;;;4.22;2.53;;;;;;;;;;5069710;28;20078;-76
2023/01/18 04:47:27;;;;;;;12.20;3.13;;;;;;;;;;5069000;28;20093;-74
2023/01/18 04:49:56;;;;;;;9.00;4.05;;;;;;;;;;5054960;28;20116;-75
2023/01/18 04:52:22;;;;;;;14.10;3.08;;;;;;;;;;5063299;28;20552;-75
2023/01/18 04:54:48;;;;;;;8.15;3.15;;;;;;;;;;5066978;28;20517;-76
2023/01/18 04:57:14;;;;;;;9.43;3.10;;;;;;;;;;5063667;28;20516;-75
2023/01/18 04:59:44;;;;;;;4.93;2.50;;;;;;;;;;5066330;28;20032;-75
2023/01/18 05:02:10;;;;;;;10.88;4.18;;;;;;;;;;5058377;28;20457;-75
2023/01/18 05:04:36;;;;;;;7.07;3.20;;;;;;;;;;5059035;28;20450;-75
2023/01/18 05:07:03;;;;;;;5.25;2.30;;;;;;;;;;5028936;28;20021;-77
2023/01/18 05:09:29;;;;;;;11.77;3.55;;;;;;;;;;5066621;28;20123;-76
2023/01/18 05:11:55;;;;;;;7.80;3.03;;;;;;;;;;5053784;28;20542;-76
2023/01/18 05:14:21;;;;;;;14.48;3.50;;;;;;;;;;5050543;28;20131;-76
2023/01/18 05:16:47;;;;;;;6.55;3.45;;;;;;;;;;5060059;28;20017;-78
2023/01/18 05:19:13;;;;;;;9.48;3.83;;;;;;;;;;5065426;28;20111;-75
2023/01/18 05:21:40;;;;;;;6.50;3.17;;;;;;;;;;5068072;28;20143;-74
2023/01/18 05:24:06;;;;;;;10.00;4.25;;;;;;;;;;5037181;28;20106;-76
2023/01/18 05:26:32;;;;;;;11.07;3.88;;;;;;;;;;5066677;28;20029;-75
2023/01/18 05:28:59;;;;;;;10.15;3.90;;;;;;;;;;5050831;28;20391;-76
2023/01/18 05:31:25;;;;;;;9.23;3.40;;;;;;;;;;5051276;28;20070;-75
2023/01/18 05:33:51;;;;;;;11.27;4.50;;;;;;;;;;5061096;28;20036;-76
2023/01/18 05:36:17;;;;;;;9.52;4.28;;;;;;;;;;5066906;28;20021;-75
2023/01/18 05:38:43;;;;;;;8.20;4.05;;;;;;;;;;5050359;28;20068;-75
2023/01/18 05:41:09;;;;;;;12.18;3.97;;;;;;;;;;5063804;28;20097;-75
2023/01/18 05:43:37;;;;;;;13.70;4.22;;;;;;;;;;5050640;28;20033;-74
2023/01/18 05:46:04;;;;;;;5.82;4.30;;;;;;;;;;5068335;28;20261;-75
2023/01/18 05:48:33;;;;;;;9.82;3.88;;;;;;;;;;5050910;28;20485;-75
2023/01/18 05:50:59;;;;;;;11.48;4.75;;;;;;;;;;5074307;28;20040;-76
2023/01/18 05:53:25;;;;;;;10.13;3.95;;;;;;;;;;5069554;28;20455;-75
2023/01/18 05:55:55;;;;;;;6.88;3.72;;;;;;;;;;5066184;28;20029;-76
2023/01/18 05:58:21;;;;;;;9.75;4.25;;;;;;;;;;5037878;28;20470;-77
2023/01/18 06:00:48;;;;;;;14.10;5.47;;;;;;;;;;5068105;28;20048;-76
2023/01/18 06:03:14;;;;;;;13.20;5.63;;;;;;;;;;5068274;28;20032;-76
2023/01/18 06:05:40;;;;;;;9.93;4.28;;;;;;;;;;5066304;28;20960;-75
2023/01/18 06:08:06;;;;;;;13.82;4.45;;;;;;;;;;5032462;28;20033;-77
2023/01/18 06:10:32;;;;;;;10.02;4.90;;;;;;;;;;5060048;28;20055;-77
2023/01/18 06:12:58;;;;;;;11.68;4.30;;;;;;;;;;5062702;28;20029;-76
2023/01/18 06:15:24;;;;;;;10.18;5.13;;;;;;;;;;5067574;28;20043;-77
2023/01/18 06:17:50;;;;;;;12.75;4.75;;;;;;;;;;5071360;28;20033;-76
2023/01/18 06:20:16;;;;;;;16.83;4.93;;;;;;;;;;5051121;28;20040;-77
2023/01/18 06:22:44;;;;;;;8.18;4.70;;;;;;;;;;5067545;28;20456;-75
2023/01/18 06:25:10;;;;;;;10.50;5.10;;;;;;;;;;5065378;28;20036;-75
2023/01/18 06:27:38;;;;;;;12.35;4.55;;;;;;;;;;5065018;28;20466;-75
2023/01/18 06:30:05;;;;;;;13.38;5.30;;;;;;;;;;5053203;28;20154;-76
2023/01/18 06:32:31;;;;;;;12.40;5.63;;;;;;;;;;5070562;28;20042;-76
2023/01/18 06:34:57;;;;;;;12.63;5.90;;;;;;;;;;5073968;28;20021;-76
2023/01/18 06:37:24;;;;;;;7.75;5.07;;;;;;;;;;5080891;28;20377;-75
2023/01/18 06:39:50;;;;;;;17.27;5.47;;;;;;;;;;5094300;28;20451;-75
2023/01/18 06:42:16;;;;;;;12.18;6.15;;;;;;;;;;5080281;28;20110;-75
2023/01/18 06:44:43;;;;;;;9.50;5.40;;;;;;;;;;5071232;28;20029;-75
2023/01/18 06:47:09;;;;;;;11.27;5.38;;;;;;;;;;5057148;28;20055;-75
2023/01/18 06:49:35;;;;;;;10.63;4.40;;;;;;;;;;5057611;28;20043;-76
2023/01/18 06:52:01;;;;;;;9.35;5.90;;;;;;;;;;5066704;28;20025;-78
2023/01/18 06:54:27;;;;;;;13.15;5.35;;;;;;;;;;5079218;28;20340;-75
2023/01/18 06:56:53;;;;;;;10.20;5.07;;;;;;;;;;5070073;28;20029;-76
2023/01/18 06:59:19;;;;;;;13.27;5.50;;;;;;;;;;5068132;28;20488;-75
2023/01/18 07:01:46;;;;;;;8.82;5.50;;;;;;;;;;5071597;28;20493;-76
2023/01/18 07:04:12;;;;;;;12.65;4.85;;;;;;;;;;5086444;28;20024;-76
2023/01/18 07:06:38;;;;;;;10.77;5.80;;;;;;;;;;5073329;28;20036;-78
2023/01/18 07:09:06;;;;;;;10.60;6.05;;;;;;;;;;5070647;28;20444;-77
2023/01/18 07:11:34;;;;;;;14.73;5.07;;;;;;;;;;5071931;28;20036;-77
2023/01/18 07:14:00;;;;;;;13.27;6.88;;;;;;;;;;5051165;28;20036;-78
2023/01/18 07:16:27;;;;;;;10.63;5.97;;;;;;;;;;5062091;28;20025;-76
2023/01/18 07:18:53;;;;;;;11.27;5.22;;;;;;;;;;5060489;28;20036;-77
2023/01/18 07:21:21;;;;;;;13.32;5.65;;;;;;;;;;5060410;28;20029;-76
2023/01/18 07:23:48;;;;;;;10.38;5.50;;;;;;;;;;5069139;28;20034;-79
2023/01/18 07:26:15;;;;;;;9.40;5.53;;;;;;;;;;5054335;28;20450;-76
2023/01/18 07:28:42;;;;;;;13.13;6.28;;;;;;;;;;5071543;28;20338;-75
2023/01/18 07:31:08;;;;;;;9.95;6.10;;;;;;;;;;5080207;28;20048;-75
2023/01/18 07:33:35;;;;;;;13.15;6.40;;;;;;;;;;5061587;28;20028;-76
2023/01/18 07:36:03;;;;;;;13.05;5.90;;;;;;;;;;5054803;28;20028;-77
2023/01/18 07:38:29;;;;;;;11.77;5.40;;;;;;;;;;5063317;28;20051;-76
2023/01/18 07:41:01;;;;;;;12.50;5.63;;;;;;;;;;5063395;28;20113;-78
2023/01/18 07:43:27;;;;;;;12.48;5.35;;;;;;;;;;5061680;28;20072;-76
2023/01/18 07:45:53;;;;;;;9.05;5.90;;;;;;;;;;5064789;28;20049;-78
2023/01/18 07:48:19;;;;;;;11.88;6.07;;;;;;;;;;5063220;28;20395;-77
2023/01/18 07:50:56;;;;;;;20.42;5.70;;;;;;;;;;5058850;28;20037;-77
2023/01/18 07:53:23;;;;;;;10.65;5.20;;;;;;;;;;5061950;28;20025;-76
2023/01/18 07:55:49;;;;;;;10.60;6.03;;;;;;;;;;5066502;28;20044;-75
2023/01/18 07:58:16;;;;;;;13.90;8.73;;;;;;;;;;5066847;28;20028;-78
2023/01/18 08:00:43;;;;;;;13.38;6.38;;;;;;;;;;5071507;28;20021;-79
2023/01/18 08:03:13;;;;;;;13.85;5.60;;;;;;;;;;5065838;28;20396;-75
2023/01/18 08:05:39;;;;;;;13.63;7.00;;;;;;;;;;5059682;28;20327;-78
2023/01/18 08:08:08;;;;;;;17.40;6.25;;;;;;;;;;5067026;28;20103;-79
2023/01/18 08:10:34;;;;;;;11.05;5.78;;;;;;;;;;5065830;28;20028;-79
2023/01/18 08:13:00;;;;;;;15.00;6.65;;;;;;;;;;5070932;28;20029;-77
2023/01/18 08:15:26;;;;;;;11.30;5.55;;;;;;;;;;5049632;28;20033;-77
2023/01/18 08:17:54;;;;;;;12.40;6.13;;;;;;;;;;5057428;28;20060;-78
2023/01/18 08:20:20;;;;;;;14.40;6.63;;;;;;;;;;5059104;28;20028;-75
2023/01/18 08:22:47;;;;;;;14.27;5.97;;;;;;;;;;5059315;28;20036;-75
2023/01/18 08:25:13;;;;;;;10.27;5.97;;;;;;;;;;5064916;28;20027;-74
2023/01/18 08:27:39;;;;;;;9.32;5.28;;;;;;;;;;5065738;28;20043;-76
2023/01/18 08:30:06;;;;;;;15.13;4.82;;;;;;;;;;5064659;28;20044;-76
2023/01/18 08:32:33;;;;;;;7.85;5.25;;;;;;;;;;5062298;28;20107;-78
2023/01/18 08:34:59;;;;;;;12.02;6.25;;;;;;;;;;5059124;28;20044;-77
2023/01/18 08:37:25;;;;;;;9.85;5.70;;;;;;;;;;5066987;28;20130;-76
2023/01/18 08:39:51;;;;;;;9.10;5.20;;;;;;;;;;5066074;28;20051;-77
2023/01/18 08:42:17;;;;;;;11.52;5.10;;;;;;;;;;5060532;28;20366;-74
2023/01/18 08:44:43;;;;;;;11.43;7.13;;;;;;;;;;5054382;28;20499;-74
2023/01/18 08:47:09;;;;;;;9.90;5.68;;;;;;;;;;5067441;28;20041;-75
2023/01/18 08:49:35;;;;;;;10.70;5.40;;;;;;;;;;5063344;28;20032;-75
2023/01/18 08:52:01;;;;;;;11.90;6.30;;;;;;;;;;5048027;28;20029;-77
2023/01/18 08:54:28;;;;;;;11.40;5.60;;;;;;;;;;5058445;28;20045;-77
2023/01/18 08:56:55;;;;;;;13.25;6.85;;;;;;;;;;5064272;28;20037;-75
2023/01/18 08:59:22;;;;;;;22.48;7.50;;;;;;;;;;5066032;28;20122;-76
2023/01/18 09:01:48;;;;;;;11.68;6.03;;;;;;;;;;5057762;28;20163;-79
2023/01/18 09:04:15;;;;;;;21.27;6.00;;;;;;;;;;5055346;28;20038;-79
2023/01/18 09:06:43;;;;;;;9.45;5.68;;;;;;;;;;5062328;28;20036;-79
2023/01/18 09:09:10;;;;;;;12.25;6.60;;;;;;;;;;5062923;28;20032;-80
2023/01/18 09:11:36;;;;;;;13.43;5.88;;;;;;;;;;5045547;28;20091;-79
2023/01/18 09:14:03;;;;;;;12.30;6.13;;;;;;;;;;5043936;28;20508;-77
2023/01/18 09:16:29;;;;;;;12.80;5.40;;;;;;;;;;5062786;28;20041;-75
2023/01/18 09:18:55;;;;;;;10.57;5.07;;;;;;;;;;5060864;28;20028;-76
2023/01/18 09:21:21;;;;;;;11.38;5.68;;;;;;;;;;5065900;28;20047;-74
2023/01/18 09:23:48;;;;;;;7.50;4.65;;;;;;;;;;5062265;28;20374;-75
2023/01/18 09:26:19;;;;;;;9.23;5.20;;;;;;;;;;5065453;28;20025;-76
2023/01/18 09:28:51;;;;;;;10.50;4.97;;;;;;;;;;5059214;28;20052;-78
2023/01/18 09:31:17;;;;;;;11.93;5.38;;;;;;;;;;5060441;28;20077;-75
2023/01/18 09:33:43;;;;;;;11.55;5.47;;;;;;;;;;5060196;28;20033;-77
2023/01/18 09:36:11;;;;;;;7.05;4.80;;;;;;;;;;5059998;28;20028;-75
2023/01/18 09:38:38;;;;;;;11.90;5.28;;;;;;;;;;5059618;28;20044;-75
2023/01/18 09:41:14;;;;;;;9.68;5.40;;;;;;;;;;5038531;28;20127;-75
2023/01/18 09:43:46;;;;;;;12.07;5.13;;;;;;;;;;5053472;28;20637;-77
2023/01/18 09:46:22;;;;;;;9.70;4.32;;;;;;;;;;5060896;28;20387;-78
2023/01/18 09:48:53;;;;;;;8.40;4.63;;;;;;;;;;5069980;28;20024;-78
2023/01/18 09:51:21;;;;;;;6.93;4.28;;;;;;;;;;5069212;28;20126;-78
2023/01/18 09:54:03;;;;;;;13.25;5.68;;;;;;;;;;5070644;28;20021;-76
2023/01/18 09:56:40;;;;;;;5.88;4.82;;;;;;;;;;5053155;28;20032;-73
2023/01/18 09:59:32;;;;;;;9.57;5.32;;;;;;;;;;5068920;28;20116;-73
2023/01/18 10:02:01;;;;;;;15.47;4.67;;;;;;;;;;5075399;28;20071;-75
2023/01/18 10:04:35;;;;;;;12.45;4.22;;;;;;;;;;5070252;28;20286;-73
2023/01/18 10:07:21;;;;;;;9.10;5.07;;;;;;;;;;5068844;28;20484;-77
2023/01/18 10:09:49;;;;;;;6.50;3.80;;;;;;;;;;5045499;28;20138;-72
2023/01/18 10:12:19;;;;;;;11.38;4.32;;;;;;;;;;5046601;28;20385;-74
2023/01/18 10:14:54;;;;;;;10.80;4.35;;;;;;;;;;5073933;28;20493;-74
2023/01/18 10:17:22;;;;;;;10.35;5.05;;;;;;;;;;5069287;28;20070;-73
2023/01/18 10:19:50;;;;;;;12.02;5.22;;;;;;;;;;5069340;28;20028;-73
2023/01/18 10:22:19;;;;;;;12.82;4.75;;;;;;;;;;5057326;28;20039;-73
2023/01/18 10:24:49;;;;;;;11.32;4.78;;;;;;;;;;5071265;28;20074;-73
2023/01/18 10:27:35;;;;;;;7.78;4.35;;;;;;;;;;5076408;28;20032;-74
2023/01/18 10:30:20;;;;;;;11.60;4.65;;;;;;;;;;5076801;28;20043;-74
2023/01/18 10:32:57;;;;;;;7.75;4.20;;;;;;;;;;5073842;28;20032;-73
2023/01/18 10:35:31;;;;;;;8.00;3.90;;;;;;;;;;5073302;28;20043;-73
2023/01/18 10:38:03;;;;;;;7.32;4.57;;;;;;;;;;5062119;28;20028;-77
2023/01/18 10:40:29;;;;;;;7.72;4.15;;;;;;;;;;5074234;28;20039;-73
2023/01/18 10:42:59;;;;;;;9.88;4.28;;;;;;;;;;5066374;28;20492;-73
2023/01/18 10:45:29;;;;;;;8.02;3.85;;;;;;;;;;5069238;28;20045;-71
2023/01/18 10:47:57;;;;;;;9.63;4.05;;;;;;;;;;5072546;28;20024;-72
2023/01/18 10:50:32;;;;;;;6.95;3.80;;;;;;;;;;5072641;28;20044;-72
2023/01/18 10:52:58;;;;;;;8.13;3.90;;;;;;;;;;5054551;28;20166;-71
2023/01/18 10:55:24;;;;;;;11.18;5.75;;;;;;;;;;5067413;28;20032;-71
2023/01/18 10:57:52;;;;;;;7.93;3.35;;;;;;;;;;5074332;28;20044;-72
2023/01/18 11:00:32;;;;;;;5.13;3.40;;;;;;;;;;5073050;28;20032;-71
2023/01/18 11:02:59;;;;;;;11.18;3.70;;;;;;;;;;5070911;28;20029;-73
2023/01/18 11:05:31;;;;;;;8.82;3.38;;;;;;;;;;5071703;28;20106;-72
2023/01/18 11:08:19;;;;;;;9.68;3.80;;;;;;;;;;5054806;28;20024;-72
2023/01/18 11:10:45;;;;;;;7.38;3.65;;;;;;;;;;5062464;28;20064;-74
2023/01/18 11:13:25;;;;;;;12.75;4.15;;;;;;;;;;5047472;28;20033;-72
2023/01/18 11:16:02;;;;;;;7.25;3.58;;;;;;;;;;5049800;28;20074;-72
2023/01/18 11:18:28;;;;;;;6.47;3.58;;;;;;;;;;5042105;28;20369;-72
2023/01/18 11:20:54;;;;;;;5.57;3.45;;;;;;;;;;5069744;28;20107;-73
2023/01/18 11:23:25;;;;;;;9.82;3.30;;;;;;;;;;5069792;28;20047;-71
2023/01/18 11:25:54;;;;;;;7.22;3.10;;;;;;;;;;5086852;28;20373;-72
2023/01/18 11:28:22;;;;;;;4.85;3.17;;;;;;;;;;5067022;28;20100;-72
2023/01/18 11:30:53;;;;;;;7.60;3.33;;;;;;;;;;5074887;28;20028;-72
2023/01/18 11:33:20;;;;;;;7.00;3.70;;;;;;;;;;5071637;28;20504;-72
2023/01/18 11:35:52;;;;;;;6.60;3.47;;;;;;;;;;5061918;28;20040;-72
2023/01/18 11:38:18;;;;;;;9.93;3.90;;;;;;;;;;5071862;28;20099;-75
2023/01/18 11:40:44;;;;;;;6.72;3.80;;;;;;;;;;5072561;28;20551;-72
2023/01/18 11:43:10;;;;;;;10.73;3.42;;;;;;;;;;5069560;28;20110;-72
2023/01/18 11:45:42;;;;;;;11.90;3.90;;;;;;;;;;5056970;28;20091;-73
2023/01/18 11:48:18;;;;;;;11.02;3.72;;;;;;;;;;5069473;28;20031;-72
2023/01/18 11:50:46;;;;;;;5.10;3.95;;;;;;;;;;5066145;28;20036;-71
2023/01/18 11:53:30;;;;;;;6.10;3.22;;;;;;;;;;5065494;28;20056;-72
2023/01/18 11:56:16;;;;;;;10.27;3.25;;;;;;;;;;5063294;28;20051;-73
2023/01/18 11:58:42;;;;;;;10.65;3.53;;;;;;;;;;5059158;28;20091;-72
2023/01/18 12:01:20;;;;;;;7.25;3.13;;;;;;;;;;5049182;28;20090;-72
2023/01/18 12:04:06;;;;;;;7.22;3.60;;;;;;;;;;5062614;28;20056;-71
2023/01/18 12:06:32;;;;;;;14.68;3.83;;;;;;;;;;5070848;28;20127;-73
2023/01/18 12:09:07;;;;;;;6.55;3.40;;;;;;;;;;5072187;28;20119;-73
2023/01/18 12:11:44;;;;;;;9.93;3.10;;;;;;;;;;5069803;28;20119;-72
2023/01/18 12:14:15;;;;;;;6.60;3.50;;;;;;;;;;5066931;28;20047;-72
2023/01/18 12:16:50;;;;;;;7.20;3.80;;;;;;;;;;5067718;28;20400;-73
2023/01/18 12:19:29;;;;;;;8.30;3.97;;;;;;;;;;5071226;28;20021;-72
2023/01/18 12:22:02;;;;;;;7.75;4.07;;;;;;;;;;5064453;28;20041;-72
2023/01/18 12:24:28;;;;;;;;;;;;;;;;;;5061272;28;20032;-72
2023/01/18 12:26:55;;;;;;;8.32;3.10;;;;;;;;;;5065368;28;19954;-73
2023/01/18 12:29:24;;;;;;;9.55;3.55;;;;;;;;;;5065803;28;20101;-74
2023/01/18 12:32:02;;;;;;;34.08;17.20;;;;;;;;;;5069562;28;20107;-74
2023/01/18 12:34:44;;;;;;;9.77;3.33;;;;;;;;;;5049454;28;20123;-75
2023/01/18 12:37:22;;;;;;;7.25;3.45;;;;;;;;;;5055860;28;20669;-73
2023/01/18 12:39:57;;;;;;;7.55;3.42;;;;;;;;;;5066450;28;20055;-73
2023/01/18 12:42:42;;;;;;;6.40;3.60;;;;;;;;;;5069065;28;20044;-74
2023/01/18 12:45:22;;;;;;;8.93;3.35;;;;;;;;;;5066137;28;20041;-75
2023/01/18 12:48:00;;;;;;;4.50;2.47;;;;;;;;;;5069457;28;20024;-73
2023/01/18 12:50:36;;;;;;;5.03;3.22;;;;;;;;;;5062688;28;20143;-74
2023/01/18 12:53:36;;;;;;;8.88;2.70;;;;;;;;;;5061097;28;20446;-74
2023/01/18 12:56:08;;;;;;;6.10;2.92;;;;;;;;;;5038036;28;20106;-73
2023/01/18 12:58:35;;;;;;;9.60;2.92;;;;;;;;;;5050097;28;20052;-73
2023/01/18 13:01:03;;;;;;;5.63;2.88;;;;;;;;;;5058996;28;20039;-73
2023/01/18 13:03:34;;;;;;;5.03;2.80;;;;;;;;;;5052455;28;20040;-73
2023/01/18 13:06:02;;;;;;;5.97;2.65;;;;;;;;;;5069753;28;20477;-73
2023/01/18 13:08:31;;;;;;;5.97;2.72;;;;;;;;;;5070488;28;20025;-73
2023/01/18 13:11:17;;;;;;;5.82;3.05;;;;;;;;;;5065353;28;20044;-74
2023/01/18 13:13:44;;;;;;;7.20;3.50;;;;;;;;;;5091434;28;20063;-73
2023/01/18 13:16:33;;;;;;;7.13;3.22;;;;;;;;;;5059027;28;20119;-73
2023/01/18 13:19:08;;;;;;;9.77;3.67;;;;;;;;;;5021677;28;20481;-73
2023/01/18 13:21:34;;;;;;;5.55;3.00;;;;;;;;;;5035531;28;20485;-73
2023/01/18 13:24:08;;;;;;;15.25;3.55;;;;;;;;;;5055036;28;20120;-73
2023/01/18 13:26:35;;;;;;;13.02;3.17;;;;;;;;;;5067928;28;20024;-72
2023/01/18 13:29:15;;;;;;;5.20;3.53;;;;;;;;;;5052508;28;20040;-73
2023/01/18 13:31:43;;;;;;;6.88;3.05;;;;;;;;;;5049215;28;20472;-73
2023/01/18 13:34:47;;;;;;;8.65;3.15;;;;;;;;;;5071194;28;20073;-73
2023/01/18 13:37:31;;;;;;;6.15;2.83;;;;;;;;;;4987774;28;20513;-73
2023/01/18 13:39:57;;;;;;;8.02;2.60;;;;;;;;;;5063913;28;20128;-73
2023/01/18 13:42:25;;;;;;;10.10;3.40;;;;;;;;;;5067935;28;20036;-73
2023/01/18 13:45:13;;;;;;;6.57;2.92;;;;;;;;;;5069104;28;20535;-73
2023/01/18 13:47:44;;;;;;;10.88;3.05;;;;;;;;;;5021307;28;20091;-74
2023/01/18 13:50:38;;;;;;;8.73;3.30;;;;;;;;;;5026158;28;20108;-73
2023/01/18 13:53:13;;;;;;;10.13;3.90;;;;;;;;;;5021277;28;20482;-73
2023/01/18 13:55:59;;;;;;;13.48;4.47;;;;;;;;;;5022071;28;20424;-73
2023/01/18 13:58:25;;;;;;;10.63;4.22;;;;;;;;;;5011509;28;20045;-74
2023/01/18 14:00:51;;;;;;;7.78;3.22;;;;;;;;;;5023703;28;20481;-74
2023/01/18 14:03:28;;;;;;;12.32;5.22;;;;;;;;;;5026437;28;20204;-72
2023/01/18 14:05:55;;;;;;;12.77;5.25;;;;;;;;;;5022351;28;20038;-72
2023/01/18 14:08:33;;;;;;;19.80;7.22;;;;;;;;;;5037690;28;20045;-72
2023/01/18 14:11:03;;;;;;;13.77;6.13;;;;;;;;;;5020576;28;20649;-73
2023/01/18 14:13:44;;;;;;;12.20;5.93;;;;;;;;;;5026900;28;20033;-72
2023/01/18 14:16:15;;;;;;;11.80;4.80;;;;;;;;;;5029176;28;20032;-72
2023/01/18 14:18:48;;;;;;;10.05;4.43;;;;;;;;;;5025717;28;20030;-72
2023/01/18 14:21:14;;;;;;;;;;;;;;;;;;5022712;28;20028;-72
2023/01/18 14:23:50;;;;;;;11.93;4.13;;;;;;;;;;5022020;28;19913;-72
2023/01/18 14:26:19;;;;;;;7.00;3.25;;;;;;;;;;5014682;28;20161;-73
2023/01/18 14:28:50;;;;;;;8.30;3.40;;;;;;;;;;5029739;28;20033;-73
2023/01/18 14:31:20;;;;;;;9.93;3.78;;;;;;;;;;5021903;28;20033;-73
2023/01/18 14:33:46;;;;;;;11.82;4.93;;;;;;;;;;5017086;28;20033;-73
2023/01/18 14:36:19;;;;;;;8.32;3.28;;;;;;;;;;5031199;28;20033;-72
2023/01/18 14:38:45;;;;;;;4.78;2.67;;;;;;;;;;5023883;28;20059;-73
2023/01/18 14:41:15;;;;;;;5.13;2.10;;;;;;;;;;5027886;28;20489;-73
2023/01/18 14:43:47;;;;;;;5.85;2.60;;;;;;;;;;5029884;28;20390;-72
2023/01/18 14:46:15;;;;;;;4.73;2.83;;;;;;;;;;5047693;28;20037;-73
2023/01/18 14:48:46;;;;;;;6.38;3.15;;;;;;;;;;5067565;28;20501;-73
2023/01/18 14:51:16;;;;;;;8.32;3.25;;;;;;;;;;5059928;28;20482;-73
2023/01/18 14:53:48;;;;;;;5.80;2.97;;;;;;;;;;5066885;28;20020;-73
2023/01/18 14:56:14;;;;;;;13.95;6.00;;;;;;;;;;5060538;28;20078;-74
2023/01/18 14:58:42;;;;;;;8.88;3.00;;;;;;;;;;5069211;28;20139;-73
2023/01/18 15:01:22;;;;;;;18.80;9.68;;;;;;;;;;5066271;28;20422;-74
2023/01/18 15:03:52;;;;;;;6.63;2.97;;;;;;;;;;5067502;28;20044;-73
2023/01/18 15:06:21;;;;;;;9.40;3.65;;;;;;;;;;5054370;28;20033;-74
2023/01/18 15:08:48;;;;;;;15.23;3.70;;;;;;;;;;5070501;28;20020;-73
2023/01/18 15:11:14;;;;;;;9.68;4.20;;;;;;;;;;5064461;28;20029;-73
2023/01/18 15:13:46;;;;;;;8.48;4.32;;;;;;;;;;5054356;28;20081;-74
2023/01/18 15:16:13;;;;;;;8.82;4.43;;;;;;;;;;5072625;28;20052;-74
2023/01/18 15:18:40;;;;;;;10.40;4.45;;;;;;;;;;5072668;28;20381;-74
2023/01/18 15:21:12;;;;;;;8.57;3.60;;;;;;;;;;5065655;28;20384;-74
2023/01/18 15:23:40;;;;;;;7.85;4.18;;;;;;;;;;5067982;28;20040;-73
2023/01/18 15:26:06;;;;;;;17.67;4.45;;;;;;;;;;5067523;28;20032;-74